Terminal Aerodrome Forecast
Issued by NWS Wakefield, VA

Home | Current Version | Previous Version | Text Only | Print | Product List | Glossary On
Versions: 1 2 3 4 5 6 7 8 9 10 11 12 13 14 15 16 17 18 19 20 21 22 23 24 25 26 27 28 29 30 31
734
FTUS41 KAKQ 221459 AAC
TAFRIC
TAF AMD
KRIC 221459Z 2215/2312 03006KT 2SM BR OVC003
      TEMPO 2215/2216 1/2SM FG VV002
     FM221600 03004KT P6SM VCSH OVC005
     FM222000 03006KT 5SM -RA BR OVC005
     FM230500 06014G22KT 3SM RA BR OVC005=

USA.gov is the U.S. government's official web portal to all federal, state and local government web resources and services.